Island Venture — WDG3765 — position and weather

sailwx.info

Track history (hours):
 
Tides and Currents Weather Stations Pressure Air Temp Water Temp Dewpoint Dewpoint Depression Visibility Wind Speed Wind Dir Waves Ship Positions

Island Venture

Owner: Island Tug and Barge, Seattle, WA. More information available from US FCC via Universal Licensing System and Coast Guard Vessel Documentation Center.

Last reported at 2017-Apr-27 10:58 UTC. Time now 2017-Apr-28 00:43 UTC.
Position N 47°11' W 122°48'.

MMSI: 367529420.

Date/timePositionNaut miles runAvg speedWind from/ knotsBaromVisibWave heightAir tempDewpointWater temp
2017-Apr-27 10:58N 47°11' W 122°48'9 4.5
2017-Apr-27 08:53N 47°13' W 122°35'3 7.0
2017-Apr-27 08:28N 47°16' W 122°33'4 7.7
2017-Apr-27 08:00N 47°20' W 122°33'3 6.6
2017-Apr-27 07:31N 47°23' W 122°32'3 6.9
2017-Apr-27 07:00N 47°26' W 122°31'3 6.2
2017-Apr-27 06:30N 47°29' W 122°30'3 6.1
2017-Apr-27 06:00N 47°32' W 122°28'4 7.2
2017-Apr-27 05:31N 47°35' W 122°26'2 4.4
2017-Apr-27 05:00N 47°35' W 122°22'1 1.9
2017-Apr-27 04:30N 47°34' W 122°21'0 0.0
2017-Apr-27 04:00N 47°34' W 122°21'0 0.0
2017-Apr-27 03:30N 47°34' W 122°21'0 0.0
2017-Apr-27 03:00N 47°34' W 122°21'0 0.0
2017-Apr-27 02:30N 47°34' W 122°21'0 0.0
2017-Apr-27 02:00N 47°34' W 122°21'0 0.0
2017-Apr-27 01:31N 47°34' W 122°21'0 0.1
2017-Apr-27 01:00N 47°34' W 122°21'0 0.1
2017-Apr-27 00:30N 47°34' W 122°21'0 0.0
2017-Apr-27 00:00N 47°34' W 122°21'0 0.0
2017-Apr-26 23:30N 47°34' W 122°21'0 0.0
2017-Apr-26 23:00N 47°34' W 122°21'0 0.0
2017-Apr-26 22:31N 47°34' W 122°21'1 1.2
2017-Apr-26 22:00N 47°35' W 122°22'0 1.0
2017-Apr-26 21:31N 47°35' W 122°22'1 2.1
2017-Apr-26 21:00N 47°36' W 122°23'3 5.0
2017-Apr-26 20:31N 47°34' W 122°26'3 5.8
2017-Apr-26 20:00N 47°32' W 122°28'4 7.1
2017-Apr-26 19:31N 47°29' W 122°31'4 7.4
2017-Apr-26 19:01N 47°25' W 122°32'4 8.1
2017-Apr-26 18:30N 47°21' W 122°33'5 9.1
2017-Apr-26 18:00N 47°16' W 122°33'5 9.1
2017-Apr-26 17:30N 47°12' W 122°36'5 1.3
2017-Apr-26 14:03N 47°08' W 122°39'9 3.6
2017-Apr-26 11:28N 47°16' W 122°33'4 7.8
2017-Apr-26 11:00N 47°20' W 122°33'3 6.0
2017-Apr-26 10:30N 47°23' W 122°32'4 7.1
2017-Apr-26 10:00N 47°26' W 122°31'3 7.0
2017-Apr-26 09:31N 47°30' W 122°30'4 7.2
2017-Apr-26 09:01N 47°33' W 122°28'4 7.3
2017-Apr-26 08:31N 47°37' W 122°28'3 6.8
2017-Apr-26 08:00N 47°40' W 122°28'3 5.4
2017-Apr-26 07:30N 47°40' W 122°24'1 1.0
2017-Apr-26 07:00N 47°40' W 122°23'2 4.4
2017-Apr-26 06:31N 47°39' W 122°21'2 4.7
2017-Apr-26 06:01N 47°39' W 122°17'3 5.5
2017-Apr-26 05:28N 47°41' W 122°15'3 7.0
2017-Apr-26 05:00N 47°45' W 122°16'1 2.2
2017-Apr-26 04:30N 47°45' W 122°15'0 0.9
2017-Apr-26 04:00N 47°45' W 122°16'0 0.1
2017-Apr-26 03:23N 47°45' W 122°16'1 2.7
2017-Apr-26 03:00N 47°44' W 122°16'3 6.6
2017-Apr-26 02:30N 47°41' W 122°14'3 5.8
2017-Apr-26 02:00N 47°39' W 122°17'2 3.6
2017-Apr-26 01:30N 47°39' W 122°20'2 4.4
2017-Apr-26 01:00N 47°40' W 122°23'1 1.1
2017-Apr-26 00:30N 47°40' W 122°24'0 0.0
2017-Apr-26 00:00N 47°40' W 122°24'0 0.0
2017-Apr-25 23:31N 47°40' W 122°24'0 0.2
2017-Apr-25 23:01N 47°40' W 122°24'0 0.8
2017-Apr-25 22:31N 47°40' W 122°24'0 0.5
2017-Apr-25 22:00N 47°40' W 122°24'2 3.7
2017-Apr-25 21:30N 47°40' W 122°27'3 6.3
2017-Apr-25 21:01N 47°36' W 122°26'3 6.2
2017-Apr-25 20:31N 47°33' W 122°28'3 6.5
2017-Apr-25 20:01N 47°30' W 122°29'3 5.8
2017-Apr-25 19:30N 47°28' W 122°31'4 7.5
2017-Apr-25 19:00N 47°31' W 122°29'5 9.4
2017-Apr-25 18:30N 47°35' W 122°25'3 5.2
2017-Apr-25 18:00N 47°34' W 122°22'0 0.0
2017-Apr-25 17:30N 47°34' W 122°22'0 0.0
2017-Apr-25 17:00N 47°34' W 122°22'0 0.0
2017-Apr-25 16:30N 47°34' W 122°22'0 0.0
2017-Apr-25 16:00N 47°34' W 122°22'0 0.0
2017-Apr-25 15:30N 47°34' W 122°22'0 0.0
2017-Apr-25 15:01N 47°34' W 122°22'0 0.0
2017-Apr-25 14:31N 47°34' W 122°22'1 0.8
2017-Apr-25 13:31N 47°34' W 122°21'0 0.0
2017-Apr-25 13:00N 47°34' W 122°21'0 0.0
2017-Apr-25 12:30N 47°34' W 122°21'0 0.0
2017-Apr-25 12:00N 47°34' W 122°21'0 0.0
2017-Apr-25 11:30N 47°34' W 122°21'0 0.2
2017-Apr-25 11:01N 47°34' W 122°21'0 0.1
2017-Apr-25 10:31N 47°34' W 122°21'0 0.1
2017-Apr-25 10:00N 47°34' W 122°21'0 0.3
2017-Apr-25 09:30N 47°34' W 122°21'0 0.0
2017-Apr-25 09:01N 47°34' W 122°21'0 0.0
2017-Apr-25 08:31N 47°34' W 122°21'0 0.0
2017-Apr-25 08:00N 47°34' W 122°21'0 0.1
2017-Apr-25 07:30N 47°34' W 122°21'1 1.4
2017-Apr-25 07:00N 47°34' W 122°21'0 0.0
2017-Apr-25 06:31N 47°34' W 122°21'0 0.0
2017-Apr-25 06:00N 47°34' W 122°21'0 0.0
2017-Apr-25 05:30N 47°34' W 122°21'0 0.0
2017-Apr-25 05:01N 47°34' W 122°21'0 0.0
2017-Apr-25 04:31N 47°34' W 122°21'0 0.1
2017-Apr-25 04:01N 47°34' W 122°21'0 0.0
2017-Apr-25 03:30N 47°34' W 122°21'0 0.0
2017-Apr-25 03:00N 47°34' W 122°21'0 0.1
2017-Apr-25 02:30N 47°34' W 122°21'0 0.0
2017-Apr-25 02:00N 47°34' W 122°21'0 0.0
2017-Apr-25 01:31N 47°34' W 122°21'0 0.1
2017-Apr-25 01:00N 47°34' W 122°21'1 1.4
2017-Apr-25 00:30N 47°34' W 122°21'0 0.5
2017-Apr-25 00:00N 47°34' W 122°21'0 0.1
2017-Apr-24 23:30N 47°34' W 122°21'0 0.5
2017-Apr-24 23:00N 47°34' W 122°21'2 3.2
2017-Apr-24 22:30N 47°35' W 122°22'0 0.1
2017-Apr-24 22:00N 47°35' W 122°22'0 0.1
2017-Apr-24 21:30N 47°35' W 122°22'0 0.7
2017-Apr-24 21:00N 47°35' W 122°23'3 5.9
2017-Apr-24 20:31N 47°38' W 122°26'3 6.3
2017-Apr-24 20:00N 47°40' W 122°28'3 6.3
2017-Apr-24 19:31N 47°43' W 122°28'3 6.7
2017-Apr-24 19:01N 47°46' W 122°28'3 6.2
2017-Apr-24 18:30N 47°50' W 122°28'3 6.4
2017-Apr-24 18:00N 47°53' W 122°30'3 6.1
2017-Apr-24 17:31N 47°55' W 122°32'5 2.3
2017-Apr-24 15:18N 47°57' W 122°38'3 8.8
2017-Apr-24 14:58N 47°56' W 122°34'4 9.5
2017-Apr-24 14:30N 47°53' W 122°30'9 8.6
2017-Apr-24 13:30N 47°45' W 122°26'5 9.2
2017-Apr-24 13:01N 47°41' W 122°27'4 8.4
2017-Apr-24 12:30N 47°37' W 122°24'3 6.0
2017-Apr-24 12:01N 47°34' W 122°21'0 0.0
2017-Apr-24 11:30N 47°34' W 122°21'0 0.0
2017-Apr-24 11:01N 47°34' W 122°21'0 0.0
2017-Apr-24 10:30N 47°34' W 122°21'0 0.0
2017-Apr-24 10:01N 47°34' W 122°21'0 0.0
2017-Apr-24 09:30N 47°34' W 122°21'0 0.0
2017-Apr-24 09:00N 47°34' W 122°21'0 0.0
2017-Apr-24 08:30N 47°34' W 122°21'0 0.0
2017-Apr-24 08:01N 47°34' W 122°21'0 0.0
2017-Apr-24 07:30N 47°34' W 122°21'0 0.0
2017-Apr-24 07:00N 47°34' W 122°21'0 0.0
2017-Apr-24 06:30N 47°34' W 122°21'0 0.0
2017-Apr-24 06:00N 47°34' W 122°21'0 0.0
2017-Apr-24 05:31N 47°34' W 122°21'0 0.0
2017-Apr-24 05:00N 47°34' W 122°21'0 0.0
2017-Apr-24 04:30N 47°34' W 122°21'0 0.0
2017-Apr-24 04:00N 47°34' W 122°21'0 0.0
2017-Apr-24 03:30N 47°34' W 122°21'0 0.0
2017-Apr-24 03:01N 47°34' W 122°21'0 0.0
2017-Apr-24 02:30N 47°34' W 122°21'0 0.0
2017-Apr-24 02:00N 47°34' W 122°21'0 0.0
2017-Apr-24 01:30N 47°34' W 122°21'0 0.0
2017-Apr-24 01:00N 47°34' W 122°21'0 0.0
2017-Apr-24 00:30N 47°34' W 122°21'0 0.0
2017-Apr-24 00:00N 47°34' W 122°21'0 0.0
2017-Apr-23 23:30N 47°34' W 122°21'0 0.0
2017-Apr-23 23:00N 47°34' W 122°21'0 0.0
2017-Apr-23 22:31N 47°34' W 122°21'0 0.0
2017-Apr-23 22:00N 47°34' W 122°21'0 0.0
2017-Apr-23 21:31N 47°34' W 122°21'0 0.0
2017-Apr-23 21:00N 47°34' W 122°21'0 0.0
2017-Apr-23 20:30N 47°34' W 122°21'0 0.0
2017-Apr-23 20:00N 47°34' W 122°21'0 0.0
2017-Apr-23 19:30N 47°34' W 122°21'0 0.0
2017-Apr-23 19:00N 47°34' W 122°21'0 0.0
2017-Apr-23 18:30N 47°34' W 122°21'0 0.0
2017-Apr-23 18:00N 47°34' W 122°21'0 0.0
2017-Apr-23 17:30N 47°34' W 122°21'0 0.0
2017-Apr-23 17:00N 47°34' W 122°21'0 0.0
2017-Apr-23 16:30N 47°34' W 122°21'0 0.0
2017-Apr-23 16:00N 47°34' W 122°21'0 0.0
2017-Apr-23 15:30N 47°34' W 122°21'0 0.0
2017-Apr-23 15:01N 47°34' W 122°21'0 0.0
2017-Apr-23 14:01N 47°34' W 122°21'0 0.0
2017-Apr-23 13:31N 47°34' W 122°21'0 0.0
2017-Apr-23 13:00N 47°34' W 122°21'0 0.0
2017-Apr-23 12:31N 47°34' W 122°21'0 0.0
2017-Apr-23 12:00N 47°34' W 122°21'0 0.0
2017-Apr-23 11:31N 47°34' W 122°21'1 1.9
2017-Apr-23 11:00N 47°35' W 122°22'2 3.3
2017-Apr-23 10:30N 47°34' W 122°21'1 1.7
2017-Apr-23 10:00N 47°34' W 122°22'0 0.1
2017-Apr-23 09:30N 47°34' W 122°22'1 1.5
2017-Apr-23 09:01N 47°35' W 122°22'1 1.3
2017-Apr-23 08:30N 47°35' W 122°22'1 1.4
2017-Apr-23 08:00N 47°35' W 122°22'0 0.1
2017-Apr-23 07:30N 47°35' W 122°22'0 0.7
2017-Apr-23 07:00N 47°35' W 122°23'4 8.1
2017-Apr-23 06:30N 47°39' W 122°26'2 4.1
2017-Apr-23 06:01N 47°40' W 122°24'1 2.5
2017-Apr-23 05:30N 47°39' W 122°22'2 4.9
2017-Apr-23 05:00N 47°39' W 122°19'4 5.8
2017-Apr-23 04:20N 47°42' W 122°15'1 0.1
2017-Apr-22 22:29N 47°42' W 122°16'4 4.1
2017-Apr-22 21:27N 47°39' W 122°20'2 3.5
2017-Apr-22 21:01N 47°39' W 122°22'2 3.1
2017-Apr-22 20:30N 47°40' W 122°24'0 0.6
2017-Apr-22 20:00N 47°40' W 122°24'1 1.8
2017-Apr-22 19:30N 47°40' W 122°25'3 5.9
2017-Apr-22 19:01N 47°38' W 122°25'3 6.0
2017-Apr-22 18:31N 47°35' W 122°22'2 4.2
2017-Apr-22 18:00N 47°33' W 122°21'1 1.1
2017-Apr-22 17:30N 47°33' W 122°20'2 4.2
2017-Apr-22 17:00N 47°35' W 122°22'2 4.5
2017-Apr-22 16:30N 47°35' W 122°25'3 6.8
2017-Apr-22 16:01N 47°32' W 122°28'4 7.7
2017-Apr-22 15:30N 47°29' W 122°30'4 7.6
2017-Apr-22 15:01N 47°25' W 122°32'4 7.6
2017-Apr-22 14:31N 47°21' W 122°32'9 8.9
2017-Apr-22 13:30N 47°13' W 122°35'5 0.2
2017-Apr-21 18:12N 47°09' W 122°38'0 0.2
2017-Apr-21 18:00N 47°09' W 122°38'0 0.0
2017-Apr-21 17:29N 47°09' W 122°38'0 0.0
2017-Apr-21 17:00N 47°09' W 122°38'0 0.0
2017-Apr-21 16:23N 47°09' W 122°38'0 0.0
2017-Apr-21 16:00N 47°09' W 122°38'0 0.0
2017-Apr-21 15:30N 47°09' W 122°38'0 0.0
2017-Apr-21 15:00N 47°09' W 122°38'0 0.0
2017-Apr-21 14:26N 47°09' W 122°38'5 1.0
2017-Apr-21 09:25N 47°13' W 122°35'4 8.8
2017-Apr-21 09:00N 47°16' W 122°33'5 9.0
2017-Apr-21 08:30N 47°21' W 122°33'4 8.1
2017-Apr-21 08:00N 47°25' W 122°32'4 8.1
2017-Apr-21 07:30N 47°29' W 122°30'4 8.5
2017-Apr-21 07:01N 47°33' W 122°28'4 7.9
2017-Apr-21 06:30N 47°36' W 122°24'2 3.0
2017-Apr-21 06:01N 47°35' W 122°22'0 0.9
2017-Apr-21 05:31N 47°35' W 122°22'1 2.1
2017-Apr-21 05:01N 47°34' W 122°21'0 0.2
2017-Apr-21 04:30N 47°34' W 122°21'0 0.1
2017-Apr-21 04:00N 47°34' W 122°21'0 0.0
2017-Apr-21 03:30N 47°34' W 122°21'0 0.0
2017-Apr-21 03:00N 47°34' W 122°21'2 3.1
2017-Apr-21 02:31N 47°35' W 122°22'1 2.6
2017-Apr-21 02:00N 47°34' W 122°21'0 0.8
2017-Apr-21 01:30N 47°34' W 122°21'0 0.0
2017-Apr-21 01:01N 47°34' W 122°21'0 0.0
2017-Apr-21 00:30N 47°34' W 122°21'0 0.0
2017-Apr-21 00:00N 47°34' W 122°21'0 0.0
2017-Apr-20 23:30N 47°34' W 122°21'0 0.0
2017-Apr-20 23:00N 47°34' W 122°21'0 0.0
2017-Apr-20 22:30N 47°34' W 122°21'0 0.0
2017-Apr-20 22:00N 47°34' W 122°21'0 0.0
2017-Apr-20 21:30N 47°34' W 122°21'0 0.0
2017-Apr-20 21:00N 47°34' W 122°21'0 0.0
2017-Apr-20 20:30N 47°34' W 122°21'0 0.0
2017-Apr-20 20:00N 47°34' W 122°21'0 0.0
2017-Apr-20 19:31N 47°34' W 122°21'1 1.1
2017-Apr-20 19:01N 47°34' W 122°21'0 0.2
2017-Apr-20 18:30N 47°34' W 122°21'0 0.5
2017-Apr-20 18:00N 47°34' W 122°21'0 0.1
2017-Apr-20 17:30N 47°34' W 122°21'0 0.1
2017-Apr-20 17:00N 47°34' W 122°21'1 1.9
2017-Apr-20 16:30N 47°33' W 122°20'2 4.4
2017-Apr-20 16:00N 47°35' W 122°22'1 1.7
2017-Apr-20 15:31N 47°35' W 122°22'3 5.2
2017-Apr-20 15:01N 47°35' W 122°26'4 7.1
2017-Apr-20 14:31N 47°32' W 122°28'4 7.6
2017-Apr-20 14:01N 47°28' W 122°31'4 7.2
2017-Apr-20 13:31N 47°25' W 122°32'4 7.3
2017-Apr-20 13:00N 47°21' W 122°33'4 8.1
2017-Apr-20 12:31N 47°17' W 122°33'4 8.5
2017-Apr-20 12:01N 47°13' W 122°35'3 6.6
2017-Apr-20 11:31N 47°11' W 122°39'3 0.2
2017-Apr-19 13:30N 47°13' W 122°35'3 6.3
2017-Apr-19 12:59N 47°16' W 122°33'3 5.9
2017-Apr-19 12:30N 47°19' W 122°34'3 6.1
2017-Apr-19 12:01N 47°22' W 122°32'3 6.4
2017-Apr-19 11:31N 47°25' W 122°32'3 6.5
2017-Apr-19 11:01N 47°28' W 122°31'3 6.1
2017-Apr-19 10:30N 47°31' W 122°29'3 6.4
2017-Apr-19 10:01N 47°34' W 122°27'4 7.1
2017-Apr-19 09:30N 47°36' W 122°23'2 5.0
2017-Apr-19 09:01N 47°34' W 122°21'0 0.0
2017-Apr-19 08:30N 47°34' W 122°21'0 0.0
2017-Apr-19 08:00N 47°34' W 122°21'0 0.0
2017-Apr-19 07:30N 47°34' W 122°21'0 0.0
2017-Apr-19 07:01N 47°34' W 122°21'0 0.0
2017-Apr-19 06:31N 47°34' W 122°21'0 0.0
2017-Apr-19 06:00N 47°34' W 122°21'0 0.0
2017-Apr-19 05:30N 47°34' W 122°21'0 0.0
2017-Apr-19 05:01N 47°34' W 122°21'0 0.0
2017-Apr-19 04:30N 47°34' W 122°21'0 0.0
2017-Apr-19 04:01N 47°34' W 122°21'0 0.7
2017-Apr-19 03:30N 47°34' W 122°21'0 0.0
2017-Apr-19 03:01N 47°34' W 122°21'0 0.0
2017-Apr-19 02:30N 47°34' W 122°21'0 0.0
2017-Apr-19 02:01N 47°34' W 122°21'0 0.0
2017-Apr-19 01:31N 47°34' W 122°21'1 1.3
2017-Apr-19 01:01N 47°34' W 122°21'1 2.9
2017-Apr-19 00:31N 47°35' W 122°22'2 4.4
2017-Apr-19 00:00N 47°35' W 122°25'3 6.8
2017-Apr-18 23:31N 47°32' W 122°28'4 7.2
2017-Apr-18 23:01N 47°29' W 122°30'4 7.2
2017-Apr-18 22:31N 47°26' W 122°31'4 7.1
2017-Apr-18 22:00N 47°22' W 122°32'4 8.0
2017-Apr-18 21:30N 47°18' W 122°33'4 8.3
2017-Apr-18 20:58N 47°14' W 122°35'1 2.3
2017-Apr-18 20:22N 47°15' W 122°34'2 6.1
2017-Apr-18 19:58N 47°18' W 122°33'3 7.0
2017-Apr-18 19:30N 47°21' W 122°33'4 7.9
2017-Apr-18 19:00N 47°25' W 122°32'4 8.1
2017-Apr-18 18:31N 47°29' W 122°31'4 8.0
2017-Apr-18 18:00N 47°32' W 122°28'4 8.4
2017-Apr-18 17:30N 47°36' W 122°24'2 4.3
2017-Apr-18 17:00N 47°35' W 122°22'2 3.9
2017-Apr-18 16:29N 47°33' W 122°20'1 2.9
2017-Apr-18 16:00N 47°34' W 122°21'1 2.5
2017-Apr-18 15:30N 47°35' W 122°22'3 5.2
2017-Apr-18 15:00N 47°33' W 122°20'0 0.1
2017-Apr-18 14:00N 47°33' W 122°20'1 2.6
2017-Apr-18 13:30N 47°34' W 122°21'2 4.9
2017-Apr-18 13:01N 47°36' W 122°23'3 6.4
2017-Apr-18 12:30N 47°34' W 122°27'4 7.2
2017-Apr-18 12:01N 47°31' W 122°29'4 7.4
2017-Apr-18 11:31N 47°27' W 122°31'4 7.2
2017-Apr-18 11:00N 47°24' W 122°32'4 7.0
2017-Apr-18 10:30N 47°20' W 122°33'4 7.9
2017-Apr-18 10:00N 47°16' W 122°33'4 8.2
2017-Apr-18 09:30N 47°12' W 122°36'3 6.6
2017-Apr-18 08:59N 47°11' W 122°40'11 0.6
2017-Apr-17 15:26N 47°12' W 122°56'10 5.9
2017-Apr-17 13:39N 47°07' W 122°42'3 6.9
2017-Apr-17 13:15N 47°09' W 122°38'0 0.2
2017-Apr-17 13:01N 47°09' W 122°38'0 0.0
2017-Apr-17 12:30N 47°09' W 122°38'0 0.0
2017-Apr-17 12:01N 47°09' W 122°38'0 0.0
2017-Apr-17 11:30N 47°09' W 122°38'0 0.0
2017-Apr-17 11:00N 47°09' W 122°38'  
Track history (hours):
 
Tides and Currents Weather Stations Pressure Air Temp Water Temp Dewpoint Dewpoint Depression Visibility Wind Speed Wind Dir Waves Ship Positions

Island Venture

Owner: Island Tug and Barge, Seattle, WA. More information available from US FCC via Universal Licensing System and Coast Guard Vessel Documentation Center.

Last reported at 2017-Apr-27 10:58 UTC. Time now 2017-Apr-28 00:44 UTC.
Position N 47°11' W 122°48'.

MMSI: 367529420.

Date/timePositionNaut miles runAvg speedWind from/ knotsBaromVisibWave heightAir tempDewpointWater temp
2017-Apr-27 10:58N 47°11' W 122°48'9 4.5
2017-Apr-27 08:53N 47°13' W 122°35'3 7.0
2017-Apr-27 08:28N 47°16' W 122°33'4 7.7
2017-Apr-27 08:00N 47°20' W 122°33'3 6.6
2017-Apr-27 07:31N 47°23' W 122°32'3 6.9
2017-Apr-27 07:00N 47°26' W 122°31'3 6.2
2017-Apr-27 06:30N 47°29' W 122°30'3 6.1
2017-Apr-27 06:00N 47°32' W 122°28'4 7.2
2017-Apr-27 05:31N 47°35' W 122°26'2 4.4
2017-Apr-27 05:00N 47°35' W 122°22'1 1.9
2017-Apr-27 04:30N 47°34' W 122°21'0 0.0
2017-Apr-27 04:00N 47°34' W 122°21'0 0.0
2017-Apr-27 03:30N 47°34' W 122°21'0 0.0
2017-Apr-27 03:00N 47°34' W 122°21'0 0.0
2017-Apr-27 02:30N 47°34' W 122°21'0 0.0
2017-Apr-27 02:00N 47°34' W 122°21'0 0.0
2017-Apr-27 01:31N 47°34' W 122°21'0 0.1
2017-Apr-27 01:00N 47°34' W 122°21'0 0.1
2017-Apr-27 00:30N 47°34' W 122°21'0 0.0
2017-Apr-27 00:00N 47°34' W 122°21'0 0.0
2017-Apr-26 23:30N 47°34' W 122°21'0 0.0
2017-Apr-26 23:00N 47°34' W 122°21'0 0.0
2017-Apr-26 22:31N 47°34' W 122°21'1 1.2
2017-Apr-26 22:00N 47°35' W 122°22'0 1.0
2017-Apr-26 21:31N 47°35' W 122°22'1 2.1
2017-Apr-26 21:00N 47°36' W 122°23'3 5.0
2017-Apr-26 20:31N 47°34' W 122°26'3 5.8
2017-Apr-26 20:00N 47°32' W 122°28'4 7.1
2017-Apr-26 19:31N 47°29' W 122°31'4 7.4
2017-Apr-26 19:01N 47°25' W 122°32'4 8.1
2017-Apr-26 18:30N 47°21' W 122°33'5 9.1
2017-Apr-26 18:00N 47°16' W 122°33'5 9.1
2017-Apr-26 17:30N 47°12' W 122°36'5 1.3
2017-Apr-26 14:03N 47°08' W 122°39'9 3.6
2017-Apr-26 11:28N 47°16' W 122°33'4 7.8
2017-Apr-26 11:00N 47°20' W 122°33'3 6.0
2017-Apr-26 10:30N 47°23' W 122°32'4 7.1
2017-Apr-26 10:00N 47°26' W 122°31'3 7.0
2017-Apr-26 09:31N 47°30' W 122°30'4 7.2
2017-Apr-26 09:01N 47°33' W 122°28'4 7.3
2017-Apr-26 08:31N 47°37' W 122°28'3 6.8
2017-Apr-26 08:00N 47°40' W 122°28'3 5.4
2017-Apr-26 07:30N 47°40' W 122°24'1 1.0
2017-Apr-26 07:00N 47°40' W 122°23'2 4.4
2017-Apr-26 06:31N 47°39' W 122°21'2 4.7
2017-Apr-26 06:01N 47°39' W 122°17'3 5.5
2017-Apr-26 05:28N 47°41' W 122°15'3 7.0
2017-Apr-26 05:00N 47°45' W 122°16'1 2.2
2017-Apr-26 04:30N 47°45' W 122°15'0 0.9
2017-Apr-26 04:00N 47°45' W 122°16'0 0.1
2017-Apr-26 03:23N 47°45' W 122°16'1 2.7
2017-Apr-26 03:00N 47°44' W 122°16'3 6.6
2017-Apr-26 02:30N 47°41' W 122°14'3 5.8
2017-Apr-26 02:00N 47°39' W 122°17'2 3.6
2017-Apr-26 01:30N 47°39' W 122°20'2 4.4
2017-Apr-26 01:00N 47°40' W 122°23'1 1.1
2017-Apr-26 00:30N 47°40' W 122°24'0 0.0
2017-Apr-26 00:00N 47°40' W 122°24'0 0.0
2017-Apr-25 23:31N 47°40' W 122°24'0 0.2
2017-Apr-25 23:01N 47°40' W 122°24'0 0.8
2017-Apr-25 22:31N 47°40' W 122°24'0 0.5
2017-Apr-25 22:00N 47°40' W 122°24'2 3.7
2017-Apr-25 21:30N 47°40' W 122°27'3 6.3
2017-Apr-25 21:01N 47°36' W 122°26'3 6.2
2017-Apr-25 20:31N 47°33' W 122°28'3 6.5
2017-Apr-25 20:01N 47°30' W 122°29'3 5.8
2017-Apr-25 19:30N 47°28' W 122°31'4 7.5
2017-Apr-25 19:00N 47°31' W 122°29'5 9.4
2017-Apr-25 18:30N 47°35' W 122°25'3 5.2
2017-Apr-25 18:00N 47°34' W 122°22'0 0.0
2017-Apr-25 17:30N 47°34' W 122°22'0 0.0
2017-Apr-25 17:00N 47°34' W 122°22'0 0.0
2017-Apr-25 16:30N 47°34' W 122°22'0 0.0
2017-Apr-25 16:00N 47°34' W 122°22'0 0.0
2017-Apr-25 15:30N 47°34' W 122°22'0 0.0
2017-Apr-25 15:01N 47°34' W 122°22'0 0.0
2017-Apr-25 14:31N 47°34' W 122°22'1 0.8
2017-Apr-25 13:31N 47°34' W 122°21'0 0.0
2017-Apr-25 13:00N 47°34' W 122°21'0 0.0
2017-Apr-25 12:30N 47°34' W 122°21'0 0.0
2017-Apr-25 12:00N 47°34' W 122°21'0 0.0
2017-Apr-25 11:30N 47°34' W 122°21'0 0.2
2017-Apr-25 11:01N 47°34' W 122°21'0 0.1
2017-Apr-25 10:31N 47°34' W 122°21'0 0.1
2017-Apr-25 10:00N 47°34' W 122°21'0 0.3
2017-Apr-25 09:30N 47°34' W 122°21'0 0.0
2017-Apr-25 09:01N 47°34' W 122°21'0 0.0
2017-Apr-25 08:31N 47°34' W 122°21'0 0.0
2017-Apr-25 08:00N 47°34' W 122°21'0 0.1
2017-Apr-25 07:30N 47°34' W 122°21'1 1.4
2017-Apr-25 07:00N 47°34' W 122°21'0 0.0
2017-Apr-25 06:31N 47°34' W 122°21'0 0.0
2017-Apr-25 06:00N 47°34' W 122°21'0 0.0
2017-Apr-25 05:30N 47°34' W 122°21'0 0.0
2017-Apr-25 05:01N 47°34' W 122°21'0 0.0
2017-Apr-25 04:31N 47°34' W 122°21'0 0.1
2017-Apr-25 04:01N 47°34' W 122°21'0 0.0
2017-Apr-25 03:30N 47°34' W 122°21'0 0.0
2017-Apr-25 03:00N 47°34' W 122°21'0 0.1
2017-Apr-25 02:30N 47°34' W 122°21'0 0.0
2017-Apr-25 02:00N 47°34' W 122°21'0 0.0
2017-Apr-25 01:31N 47°34' W 122°21'0 0.1
2017-Apr-25 01:00N 47°34' W 122°21'1 1.4
2017-Apr-25 00:30N 47°34' W 122°21'0 0.5
2017-Apr-25 00:00N 47°34' W 122°21'0 0.1
2017-Apr-24 23:30N 47°34' W 122°21'0 0.5
2017-Apr-24 23:00N 47°34' W 122°21'2 3.2
2017-Apr-24 22:30N 47°35' W 122°22'0 0.1
2017-Apr-24 22:00N 47°35' W 122°22'0 0.1
2017-Apr-24 21:30N 47°35' W 122°22'0 0.7
2017-Apr-24 21:00N 47°35' W 122°23'3 5.9
2017-Apr-24 20:31N 47°38' W 122°26'3 6.3
2017-Apr-24 20:00N 47°40' W 122°28'3 6.3
2017-Apr-24 19:31N 47°43' W 122°28'3 6.7
2017-Apr-24 19:01N 47°46' W 122°28'3 6.2
2017-Apr-24 18:30N 47°50' W 122°28'3 6.4
2017-Apr-24 18:00N 47°53' W 122°30'3 6.1
2017-Apr-24 17:31N 47°55' W 122°32'5 2.3
2017-Apr-24 15:18N 47°57' W 122°38'3 8.8
2017-Apr-24 14:58N 47°56' W 122°34'4 9.5
2017-Apr-24 14:30N 47°53' W 122°30'9 8.6
2017-Apr-24 13:30N 47°45' W 122°26'5 9.2
2017-Apr-24 13:01N 47°41' W 122°27'4 8.4
2017-Apr-24 12:30N 47°37' W 122°24'3 6.0
2017-Apr-24 12:01N 47°34' W 122°21'0 0.0
2017-Apr-24 11:30N 47°34' W 122°21'0 0.0
2017-Apr-24 11:01N 47°34' W 122°21'0 0.0
2017-Apr-24 10:30N 47°34' W 122°21'0 0.0
2017-Apr-24 10:01N 47°34' W 122°21'0 0.0
2017-Apr-24 09:30N 47°34' W 122°21'0 0.0
2017-Apr-24 09:00N 47°34' W 122°21'0 0.0
2017-Apr-24 08:30N 47°34' W 122°21'0 0.0
2017-Apr-24 08:01N 47°34' W 122°21'0 0.0
2017-Apr-24 07:30N 47°34' W 122°21'0 0.0
2017-Apr-24 07:00N 47°34' W 122°21'0 0.0
2017-Apr-24 06:30N 47°34' W 122°21'0 0.0
2017-Apr-24 06:00N 47°34' W 122°21'0 0.0
2017-Apr-24 05:31N 47°34' W 122°21'0 0.0
2017-Apr-24 05:00N 47°34' W 122°21'0 0.0
2017-Apr-24 04:30N 47°34' W 122°21'0 0.0
2017-Apr-24 04:00N 47°34' W 122°21'0 0.0
2017-Apr-24 03:30N 47°34' W 122°21'0 0.0
2017-Apr-24 03:01N 47°34' W 122°21'0 0.0
2017-Apr-24 02:30N 47°34' W 122°21'0 0.0
2017-Apr-24 02:00N 47°34' W 122°21'0 0.0
2017-Apr-24 01:30N 47°34' W 122°21'0 0.0
2017-Apr-24 01:00N 47°34' W 122°21'0 0.0
2017-Apr-24 00:30N 47°34' W 122°21'0 0.0
2017-Apr-24 00:00N 47°34' W 122°21'0 0.0
2017-Apr-23 23:30N 47°34' W 122°21'0 0.0
2017-Apr-23 23:00N 47°34' W 122°21'0 0.0
2017-Apr-23 22:31N 47°34' W 122°21'0 0.0
2017-Apr-23 22:00N 47°34' W 122°21'0 0.0
2017-Apr-23 21:31N 47°34' W 122°21'0 0.0
2017-Apr-23 21:00N 47°34' W 122°21'0 0.0
2017-Apr-23 20:30N 47°34' W 122°21'0 0.0
2017-Apr-23 20:00N 47°34' W 122°21'0 0.0
2017-Apr-23 19:30N 47°34' W 122°21'0 0.0
2017-Apr-23 19:00N 47°34' W 122°21'0 0.0
2017-Apr-23 18:30N 47°34' W 122°21'0 0.0
2017-Apr-23 18:00N 47°34' W 122°21'0 0.0
2017-Apr-23 17:30N 47°34' W 122°21'0 0.0
2017-Apr-23 17:00N 47°34' W 122°21'0 0.0
2017-Apr-23 16:30N 47°34' W 122°21'0 0.0
2017-Apr-23 16:00N 47°34' W 122°21'0 0.0
2017-Apr-23 15:30N 47°34' W 122°21'0 0.0
2017-Apr-23 15:01N 47°34' W 122°21'0 0.0
2017-Apr-23 14:01N 47°34' W 122°21'0 0.0
2017-Apr-23 13:31N 47°34' W 122°21'0 0.0
2017-Apr-23 13:00N 47°34' W 122°21'0 0.0
2017-Apr-23 12:31N 47°34' W 122°21'0 0.0
2017-Apr-23 12:00N 47°34' W 122°21'0 0.0
2017-Apr-23 11:31N 47°34' W 122°21'1 1.9
2017-Apr-23 11:00N 47°35' W 122°22'2 3.3
2017-Apr-23 10:30N 47°34' W 122°21'1 1.7
2017-Apr-23 10:00N 47°34' W 122°22'0 0.1
2017-Apr-23 09:30N 47°34' W 122°22'1 1.5
2017-Apr-23 09:01N 47°35' W 122°22'1 1.3
2017-Apr-23 08:30N 47°35' W 122°22'1 1.4
2017-Apr-23 08:00N 47°35' W 122°22'0 0.1
2017-Apr-23 07:30N 47°35' W 122°22'0 0.7
2017-Apr-23 07:00N 47°35' W 122°23'4 8.1
2017-Apr-23 06:30N 47°39' W 122°26'2 4.1
2017-Apr-23 06:01N 47°40' W 122°24'1 2.5
2017-Apr-23 05:30N 47°39' W 122°22'2 4.9
2017-Apr-23 05:00N 47°39' W 122°19'4 5.8
2017-Apr-23 04:20N 47°42' W 122°15'1 0.1
2017-Apr-22 22:29N 47°42' W 122°16'4 4.1
2017-Apr-22 21:27N 47°39' W 122°20'2 3.5
2017-Apr-22 21:01N 47°39' W 122°22'2 3.1
2017-Apr-22 20:30N 47°40' W 122°24'0 0.6
2017-Apr-22 20:00N 47°40' W 122°24'1 1.8
2017-Apr-22 19:30N 47°40' W 122°25'3 5.9
2017-Apr-22 19:01N 47°38' W 122°25'3 6.0
2017-Apr-22 18:31N 47°35' W 122°22'2 4.2
2017-Apr-22 18:00N 47°33' W 122°21'1 1.1
2017-Apr-22 17:30N 47°33' W 122°20'2 4.2
2017-Apr-22 17:00N 47°35' W 122°22'2 4.5
2017-Apr-22 16:30N 47°35' W 122°25'3 6.8
2017-Apr-22 16:01N 47°32' W 122°28'4 7.7
2017-Apr-22 15:30N 47°29' W 122°30'4 7.6
2017-Apr-22 15:01N 47°25' W 122°32'4 7.6
2017-Apr-22 14:31N 47°21' W 122°32'9 8.9
2017-Apr-22 13:30N 47°13' W 122°35'5 0.2
2017-Apr-21 18:12N 47°09' W 122°38'0 0.2
2017-Apr-21 18:00N 47°09' W 122°38'0 0.0
2017-Apr-21 17:29N 47°09' W 122°38'0 0.0
2017-Apr-21 17:00N 47°09' W 122°38'0 0.0
2017-Apr-21 16:23N 47°09' W 122°38'0 0.0
2017-Apr-21 16:00N 47°09' W 122°38'0 0.0
2017-Apr-21 15:30N 47°09' W 122°38'0 0.0
2017-Apr-21 15:00N 47°09' W 122°38'0 0.0
2017-Apr-21 14:26N 47°09' W 122°38'5 1.0
2017-Apr-21 09:25N 47°13' W 122°35'4 8.8
2017-Apr-21 09:00N 47°16' W 122°33'5 9.0
2017-Apr-21 08:30N 47°21' W 122°33'4 8.1
2017-Apr-21 08:00N 47°25' W 122°32'4 8.1
2017-Apr-21 07:30N 47°29' W 122°30'4 8.5
2017-Apr-21 07:01N 47°33' W 122°28'4 7.9
2017-Apr-21 06:30N 47°36' W 122°24'2 3.0
2017-Apr-21 06:01N 47°35' W 122°22'0 0.9
2017-Apr-21 05:31N 47°35' W 122°22'1 2.1
2017-Apr-21 05:01N 47°34' W 122°21'0 0.2
2017-Apr-21 04:30N 47°34' W 122°21'0 0.1
2017-Apr-21 04:00N 47°34' W 122°21'0 0.0
2017-Apr-21 03:30N 47°34' W 122°21'0 0.0
2017-Apr-21 03:00N 47°34' W 122°21'2 3.1
2017-Apr-21 02:31N 47°35' W 122°22'1 2.6
2017-Apr-21 02:00N 47°34' W 122°21'0 0.8
2017-Apr-21 01:30N 47°34' W 122°21'0 0.0
2017-Apr-21 01:01N 47°34' W 122°21'0 0.0
2017-Apr-21 00:30N 47°34' W 122°21'0 0.0
2017-Apr-21 00:00N 47°34' W 122°21'0 0.0
2017-Apr-20 23:30N 47°34' W 122°21'0 0.0
2017-Apr-20 23:00N 47°34' W 122°21'0 0.0
2017-Apr-20 22:30N 47°34' W 122°21'0 0.0
2017-Apr-20 22:00N 47°34' W 122°21'0 0.0
2017-Apr-20 21:30N 47°34' W 122°21'0 0.0
2017-Apr-20 21:00N 47°34' W 122°21'0 0.0
2017-Apr-20 20:30N 47°34' W 122°21'0 0.0
2017-Apr-20 20:00N 47°34' W 122°21'0 0.0
2017-Apr-20 19:31N 47°34' W 122°21'1 1.1
2017-Apr-20 19:01N 47°34' W 122°21'0 0.2
2017-Apr-20 18:30N 47°34' W 122°21'0 0.5
2017-Apr-20 18:00N 47°34' W 122°21'0 0.1
2017-Apr-20 17:30N 47°34' W 122°21'0 0.1
2017-Apr-20 17:00N 47°34' W 122°21'1 1.9
2017-Apr-20 16:30N 47°33' W 122°20'2 4.4
2017-Apr-20 16:00N 47°35' W 122°22'1 1.7
2017-Apr-20 15:31N 47°35' W 122°22'3 5.2
2017-Apr-20 15:01N 47°35' W 122°26'4 7.1
2017-Apr-20 14:31N 47°32' W 122°28'4 7.6
2017-Apr-20 14:01N 47°28' W 122°31'4 7.2
2017-Apr-20 13:31N 47°25' W 122°32'4 7.3
2017-Apr-20 13:00N 47°21' W 122°33'4 8.1
2017-Apr-20 12:31N 47°17' W 122°33'4 8.5
2017-Apr-20 12:01N 47°13' W 122°35'3 6.6
2017-Apr-20 11:31N 47°11' W 122°39'3 0.2
2017-Apr-19 13:30N 47°13' W 122°35'3 6.3
2017-Apr-19 12:59N 47°16' W 122°33'3 5.9
2017-Apr-19 12:30N 47°19' W 122°34'3 6.1
2017-Apr-19 12:01N 47°22' W 122°32'3 6.4
2017-Apr-19 11:31N 47°25' W 122°32'3 6.5
2017-Apr-19 11:01N 47°28' W 122°31'3 6.1
2017-Apr-19 10:30N 47°31' W 122°29'3 6.4
2017-Apr-19 10:01N 47°34' W 122°27'4 7.1
2017-Apr-19 09:30N 47°36' W 122°23'2 5.0
2017-Apr-19 09:01N 47°34' W 122°21'0 0.0
2017-Apr-19 08:30N 47°34' W 122°21'0 0.0
2017-Apr-19 08:00N 47°34' W 122°21'0 0.0
2017-Apr-19 07:30N 47°34' W 122°21'0 0.0
2017-Apr-19 07:01N 47°34' W 122°21'0 0.0
2017-Apr-19 06:31N 47°34' W 122°21'0 0.0
2017-Apr-19 06:00N 47°34' W 122°21'0 0.0
2017-Apr-19 05:30N 47°34' W 122°21'0 0.0
2017-Apr-19 05:01N 47°34' W 122°21'0 0.0
2017-Apr-19 04:30N 47°34' W 122°21'0 0.0
2017-Apr-19 04:01N 47°34' W 122°21'0 0.7
2017-Apr-19 03:30N 47°34' W 122°21'0 0.0
2017-Apr-19 03:01N 47°34' W 122°21'0 0.0
2017-Apr-19 02:30N 47°34' W 122°21'0 0.0
2017-Apr-19 02:01N 47°34' W 122°21'0 0.0
2017-Apr-19 01:31N 47°34' W 122°21'1 1.3
2017-Apr-19 01:01N 47°34' W 122°21'1 2.9
2017-Apr-19 00:31N 47°35' W 122°22'2 4.4
2017-Apr-19 00:00N 47°35' W 122°25'3 6.8
2017-Apr-18 23:31N 47°32' W 122°28'4 7.2
2017-Apr-18 23:01N 47°29' W 122°30'4 7.2
2017-Apr-18 22:31N 47°26' W 122°31'4 7.1
2017-Apr-18 22:00N 47°22' W 122°32'4 8.0
2017-Apr-18 21:30N 47°18' W 122°33'4 8.3
2017-Apr-18 20:58N 47°14' W 122°35'1 2.3
2017-Apr-18 20:22N 47°15' W 122°34'2 6.1
2017-Apr-18 19:58N 47°18' W 122°33'3 7.0
2017-Apr-18 19:30N 47°21' W 122°33'4 7.9
2017-Apr-18 19:00N 47°25' W 122°32'4 8.1
2017-Apr-18 18:31N 47°29' W 122°31'4 8.0
2017-Apr-18 18:00N 47°32' W 122°28'4 8.4
2017-Apr-18 17:30N 47°36' W 122°24'2 4.3
2017-Apr-18 17:00N 47°35' W 122°22'2 3.9
2017-Apr-18 16:29N 47°33' W 122°20'1 2.9
2017-Apr-18 16:00N 47°34' W 122°21'1 2.5
2017-Apr-18 15:30N 47°35' W 122°22'3 5.2
2017-Apr-18 15:00N 47°33' W 122°20'0 0.1
2017-Apr-18 14:00N 47°33' W 122°20'1 2.6
2017-Apr-18 13:30N 47°34' W 122°21'2 4.9
2017-Apr-18 13:01N 47°36' W 122°23'3 6.4
2017-Apr-18 12:30N 47°34' W 122°27'4 7.2
2017-Apr-18 12:01N 47°31' W 122°29'4 7.4
2017-Apr-18 11:31N 47°27' W 122°31'4 7.2
2017-Apr-18 11:00N 47°24' W 122°32'4 7.0
2017-Apr-18 10:30N 47°20' W 122°33'4 7.9
2017-Apr-18 10:00N 47°16' W 122°33'4 8.2
2017-Apr-18 09:30N 47°12' W 122°36'3 6.6
2017-Apr-18 08:59N 47°11' W 122°40'11 0.6
2017-Apr-17 15:26N 47°12' W 122°56'10 5.9
2017-Apr-17 13:39N 47°07' W 122°42'3 6.9
2017-Apr-17 13:15N 47°09' W 122°38'0 0.2
2017-Apr-17 13:01N 47°09' W 122°38'0 0.0
2017-Apr-17 12:30N 47°09' W 122°38'0 0.0
2017-Apr-17 12:01N 47°09' W 122°38'0 0.0
2017-Apr-17 11:30N 47°09' W 122°38'0 0.0
2017-Apr-17 11:00N 47°09' W 122°38'  

Dump ship's entire track history